sensor_id;sensor_type;location;lat;lon;timestamp;pressure;altitude;pressure_sealevel;temperature;humidity
25526;BME280;13424;48.424;11.258;2023-06-24T00:03:27;96504.13;;;20.09;77.14
25526;BME280;13424;48.424;11.258;2023-06-24T00:05:53;96501.97;;;20.06;77.19
25526;BME280;13424;48.424;11.258;2023-06-24T00:08:23;96502.91;;;19.71;78.18
25526;BME280;13424;48.424;11.258;2023-06-24T00:10:57;96506.03;;;20.03;76.83
25526;BME280;13424;48.424;11.258;2023-06-24T00:13:23;96511.97;;;20.05;76.89
25526;BME280;13424;48.424;11.258;2023-06-24T00:15:49;96510.13;;;19.96;76.60
25526;BME280;13424;48.424;11.258;2023-06-24T00:18:15;96510.09;;;20.06;77.10
25526;BME280;13424;48.424;11.258;2023-06-24T00:20:40;96517.59;;;20.24;76.27
25526;BME280;13424;48.424;11.258;2023-06-24T00:23:08;96523.56;;;20.21;76.81
25526;BME280;13424;48.424;11.258;2023-06-24T00:29:02;96519.56;;;20.08;77.74
25526;BME280;13424;48.424;11.258;2023-06-24T00:31:28;96512.19;;;20.19;76.79
25526;BME280;13424;48.424;11.258;2023-06-24T00:33:54;96508.97;;;20.12;77.05
25526;BME280;13424;48.424;11.258;2023-06-24T00:36:20;96504.22;;;19.89;77.15
25526;BME280;13424;48.424;11.258;2023-06-24T00:38:49;96504.19;;;19.94;76.74
25526;BME280;13424;48.424;11.258;2023-06-24T00:41:19;96494.91;;;20.15;76.76
25526;BME280;13424;48.424;11.258;2023-06-24T00:43:45;96494.97;;;20.00;77.06
25526;BME280;13424;48.424;11.258;2023-06-24T00:46:11;96490.72;;;19.73;78.71
25526;BME280;13424;48.424;11.258;2023-06-24T00:48:38;96490.44;;;19.85;78.53
25526;BME280;13424;48.424;11.258;2023-06-24T00:51:04;96497.91;;;20.08;77.10
25526;BME280;13424;48.424;11.258;2023-06-24T00:53:29;96497.63;;;20.15;76.80
25526;BME280;13424;48.424;11.258;2023-06-24T00:55:56;96496.47;;;20.21;75.60
25526;BME280;13424;48.424;11.258;2023-06-24T00:58:29;96495.13;;;20.24;75.27
25526;BME280;13424;48.424;11.258;2023-06-24T01:05:04;96493.59;;;20.02;77.51
25526;BME280;13424;48.424;11.258;2023-06-24T01:07:31;96500.91;;;20.07;77.27
25526;BME280;13424;48.424;11.258;2023-06-24T01:09:59;96495.22;;;20.03;77.57
25526;BME280;13424;48.424;11.258;2023-06-24T01:12:26;96497.09;;;20.08;77.70
25526;BME280;13424;48.424;11.258;2023-06-24T01:14:51;96506.84;;;20.04;78.12
25526;BME280;13424;48.424;11.258;2023-06-24T01:17:24;96502.25;;;20.04;78.88
25526;BME280;13424;48.424;11.258;2023-06-24T01:23:06;96499.28;;;20.01;78.49
25526;BME280;13424;48.424;11.258;2023-06-24T01:29:05;96478.25;;;19.83;79.34
25526;BME280;13424;48.424;11.258;2023-06-24T01:34:29;96472.06;;;19.72;79.33
25526;BME280;13424;48.424;11.258;2023-06-24T01:37:26;96474.41;;;19.94;78.64
25526;BME280;13424;48.424;11.258;2023-06-24T01:40:19;96469.06;;;19.78;78.63
25526;BME280;13424;48.424;11.258;2023-06-24T01:42:48;96472.53;;;19.89;78.48
25526;BME280;13424;48.424;11.258;2023-06-24T01:45:24;96461.47;;;19.86;78.89
25526;BME280;13424;48.424;11.258;2023-06-24T01:48:02;96463.00;;;20.02;78.15
25526;BME280;13424;48.424;11.258;2023-06-24T01:50:29;96460.81;;;20.04;77.77
25526;BME280;13424;48.424;11.258;2023-06-24T01:52:57;96459.28;;;19.88;78.03
25526;BME280;13424;48.424;11.258;2023-06-24T01:55:24;96455.75;;;19.92;77.93
25526;BME280;13424;48.424;11.258;2023-06-24T01:57:51;96461.19;;;19.87;77.03
25526;BME280;13424;48.424;11.258;2023-06-24T02:00:18;96457.31;;;19.98;77.14
25526;BME280;13424;48.424;11.258;2023-06-24T02:03:25;96454.97;;;19.87;78.14
25526;BME280;13424;48.424;11.258;2023-06-24T02:05:52;96459.78;;;19.95;77.70
25526;BME280;13424;48.424;11.258;2023-06-24T02:08:21;96454.16;;;19.86;78.44
25526;BME280;13424;48.424;11.258;2023-06-24T02:10:48;96454.13;;;19.91;78.27
25526;BME280;13424;48.424;11.258;2023-06-24T02:13:14;96453.03;;;19.92;78.63
25526;BME280;13424;48.424;11.258;2023-06-24T02:15:41;96460.94;;;19.78;77.32
25526;BME280;13424;48.424;11.258;2023-06-24T02:18:09;96455.00;;;19.76;78.03
25526;BME280;13424;48.424;11.258;2023-06-24T02:20:37;96453.28;;;20.01;77.13
25526;BME280;13424;48.424;11.258;2023-06-24T02:23:04;96463.06;;;19.92;77.46
25526;BME280;13424;48.424;11.258;2023-06-24T02:25:31;96460.00;;;20.03;77.16
25526;BME280;13424;48.424;11.258;2023-06-24T02:31:20;96454.31;;;20.10;76.26
25526;BME280;13424;48.424;11.258;2023-06-24T02:33:46;96451.34;;;20.06;76.24
25526;BME280;13424;48.424;11.258;2023-06-24T02:36:12;96445.09;;;20.11;76.52
25526;BME280;13424;48.424;11.258;2023-06-24T02:38:38;96445.66;;;20.03;76.96
25526;BME280;13424;48.424;11.258;2023-06-24T02:41:03;96454.59;;;20.03;76.93
25526;BME280;13424;48.424;11.258;2023-06-24T02:43:31;96452.16;;;20.07;76.45
25526;BME280;13424;48.424;11.258;2023-06-24T02:45:58;96453.78;;;20.03;76.66
25526;BME280;13424;48.424;11.258;2023-06-24T02:48:26;96460.31;;;20.02;76.35
25526;BME280;13424;48.424;11.258;2023-06-24T02:50:53;96460.31;;;20.02;76.40
25526;BME280;13424;48.424;11.258;2023-06-24T02:53:20;96458.41;;;19.97;76.62
25526;BME280;13424;48.424;11.258;2023-06-24T02:55:48;96468.44;;;19.97;76.74
25526;BME280;13424;48.424;11.258;2023-06-24T02:58:14;96476.53;;;20.02;76.85
25526;BME280;13424;48.424;11.258;2023-06-24T03:01:01;96468.94;;;20.04;76.93
25526;BME280;13424;48.424;11.258;2023-06-24T03:03:32;96472.75;;;20.03;77.19
25526;BME280;13424;48.424;11.258;2023-06-24T03:05:58;96477.66;;;19.96;77.22
25526;BME280;13424;48.424;11.258;2023-06-24T03:08:25;96482.53;;;19.99;77.16
25526;BME280;13424;48.424;11.258;2023-06-24T03:10:57;96482.81;;;19.92;77.64
25526;BME280;13424;48.424;11.258;2023-06-24T03:13:25;96487.44;;;19.92;77.94
25526;BME280;13424;48.424;11.258;2023-06-24T03:15:58;96494.16;;;19.99;77.44
25526;BME280;13424;48.424;11.258;2023-06-24T03:18:25;96493.91;;;19.96;76.53
25526;BME280;13424;48.424;11.258;2023-06-24T03:20:52;96493.16;;;19.80;77.24
25526;BME280;13424;48.424;11.258;2023-06-24T03:23:24;96501.78;;;19.87;77.22
25526;BME280;13424;48.424;11.258;2023-06-24T03:25:50;96498.44;;;20.05;76.67
25526;BME280;13424;48.424;11.258;2023-06-24T03:28:16;96507.38;;;20.06;75.96
25526;BME280;13424;48.424;11.258;2023-06-24T03:30:49;96503.56;;;20.12;75.46
25526;BME280;13424;48.424;11.258;2023-06-24T03:33:18;96501.47;;;19.99;74.16
25526;BME280;13424;48.424;11.258;2023-06-24T03:35:45;96509.59;;;19.99;74.24
25526;BME280;13424;48.424;11.258;2023-06-24T03:38:14;96506.31;;;20.07;74.51
25526;BME280;13424;48.424;11.258;2023-06-24T03:40:40;96502.00;;;20.01;75.17
25526;BME280;13424;48.424;11.258;2023-06-24T03:43:06;96511.47;;;20.03;75.16
25526;BME280;13424;48.424;11.258;2023-06-24T03:45:33;96509.03;;;20.02;75.57
25526;BME280;13424;48.424;11.258;2023-06-24T03:47:59;96512.38;;;19.73;75.41
25526;BME280;13424;48.424;11.258;2023-06-24T03:50:25;96524.38;;;20.22;74.02
25526;BME280;13424;48.424;11.258;2023-06-24T03:52:51;96515.13;;;20.33;72.36
25526;BME280;13424;48.424;11.258;2023-06-24T03:55:17;96517.25;;;20.36;72.86
25526;BME280;13424;48.424;11.258;2023-06-24T03:57:43;96515.72;;;20.20;73.22
25526;BME280;13424;48.424;11.258;2023-06-24T04:00:10;96514.63;;;20.21;73.47
25526;BME280;13424;48.424;11.258;2023-06-24T04:02:43;96517.81;;;20.33;73.10
25526;BME280;13424;48.424;11.258;2023-06-24T04:05:09;96521.34;;;20.33;73.38
25526;BME280;13424;48.424;11.258;2023-06-24T04:07:35;96526.50;;;20.30;73.79
25526;BME280;13424;48.424;11.258;2023-06-24T04:10:03;96518.63;;;20.33;73.35
25526;BME280;13424;48.424;11.258;2023-06-24T04:12:37;96514.84;;;20.34;73.22
25526;BME280;13424;48.424;11.258;2023-06-24T04:15:03;96523.47;;;20.42;73.37
25526;BME280;13424;48.424;11.258;2023-06-24T04:17:33;96521.28;;;20.54;73.27
25526;BME280;13424;48.424;11.258;2023-06-24T04:19:59;96521.19;;;20.64;73.71
25526;BME280;13424;48.424;11.258;2023-06-24T04:22:25;96529.63;;;20.62;73.40
25526;BME280;13424;48.424;11.258;2023-06-24T04:24:55;96529.28;;;20.69;73.58
25526;BME280;13424;48.424;11.258;2023-06-24T04:27:21;96528.22;;;20.65;73.38
25526;BME280;13424;48.424;11.258;2023-06-24T04:29:46;96529.75;;;20.81;72.90
25526;BME280;13424;48.424;11.258;2023-06-24T04:36:44;96529.47;;;20.83;73.64
25526;BME280;13424;48.424;11.258;2023-06-24T04:39:10;96531.19;;;20.69;73.42
25526;BME280;13424;48.424;11.258;2023-06-24T04:41:36;96535.78;;;20.73;72.95
25526;BME280;13424;48.424;11.258;2023-06-24T04:44:02;96526.63;;;20.98;72.69
25526;BME280;13424;48.424;11.258;2023-06-24T04:46:32;96534.66;;;21.13;72.25
25526;BME280;13424;48.424;11.258;2023-06-24T04:49:00;96544.16;;;21.11;72.09
25526;BME280;13424;48.424;11.258;2023-06-24T04:51:26;96547.13;;;21.14;71.66
25526;BME280;13424;48.424;11.258;2023-06-24T04:53:51;96548.59;;;21.36;71.42
25526;BME280;13424;48.424;11.258;2023-06-24T04:56:17;96550.56;;;21.25;70.82
25526;BME280;13424;48.424;11.258;2023-06-24T04:58:43;96554.34;;;21.29;71.74
25526;BME280;13424;48.424;11.258;2023-06-24T05:01:09;96553.25;;;21.30;72.10
25526;BME280;13424;48.424;11.258;2023-06-24T05:03:35;96546.41;;;21.38;71.64
25526;BME280;13424;48.424;11.258;2023-06-24T05:06:01;96558.06;;;21.38;70.59
25526;BME280;13424;48.424;11.258;2023-06-24T05:08:26;96553.69;;;21.42;71.23
25526;BME280;13424;48.424;11.258;2023-06-24T05:10:52;96560.28;;;21.65;70.50
25526;BME280;13424;48.424;11.258;2023-06-24T05:13:18;96561.59;;;21.68;70.35
25526;BME280;13424;48.424;11.258;2023-06-24T05:15:44;96552.81;;;21.76;70.61
25526;BME280;13424;48.424;11.258;2023-06-24T05:21:51;96565.66;;;21.94;70.01
25526;BME280;13424;48.424;11.258;2023-06-24T05:24:17;96568.44;;;21.89;69.82
25526;BME280;13424;48.424;11.258;2023-06-24T05:26:44;96568.53;;;21.79;68.92
25526;BME280;13424;48.424;11.258;2023-06-24T05:29:10;96571.19;;;21.84;68.25
25526;BME280;13424;48.424;11.258;2023-06-24T05:31:37;96559.88;;;21.77;69.18
25526;BME280;13424;48.424;11.258;2023-06-24T05:34:03;96568.47;;;22.13;68.69
25526;BME280;13424;48.424;11.258;2023-06-24T05:36:29;96565.97;;;21.64;69.72
25526;BME280;13424;48.424;11.258;2023-06-24T05:38:54;96572.34;;;22.02;68.73
25526;BME280;13424;48.424;11.258;2023-06-24T05:41:20;96572.59;;;22.06;68.87
25526;BME280;13424;48.424;11.258;2023-06-24T05:43:46;96577.50;;;22.03;68.21
25526;BME280;13424;48.424;11.258;2023-06-24T05:46:12;96579.34;;;21.84;69.12
25526;BME280;13424;48.424;11.258;2023-06-24T05:52:47;96577.81;;;22.26;67.20
25526;BME280;13424;48.424;11.258;2023-06-24T05:55:13;96578.59;;;22.02;68.19
25526;BME280;13424;48.424;11.258;2023-06-24T05:57:41;96577.22;;;22.05;66.52
25526;BME280;13424;48.424;11.258;2023-06-24T06:00:08;96577.28;;;22.24;66.94
25526;BME280;13424;48.424;11.258;2023-06-24T06:02:41;96579.22;;;21.94;65.79
25526;BME280;13424;48.424;11.258;2023-06-24T06:05:07;96576.19;;;21.72;66.71
25526;BME280;13424;48.424;11.258;2023-06-24T06:07:33;96580.84;;;21.42;69.37
25526;BME280;13424;48.424;11.258;2023-06-24T06:10:00;96579.06;;;22.34;66.90
25526;BME280;13424;48.424;11.258;2023-06-24T06:12:35;96581.38;;;22.45;66.52
25526;BME280;13424;48.424;11.258;2023-06-24T06:15:01;96580.94;;;22.38;66.95
25526;BME280;13424;48.424;11.258;2023-06-24T06:17:26;96571.72;;;22.34;66.33
25526;BME280;13424;48.424;11.258;2023-06-24T06:19:52;96583.25;;;22.26;65.93
25526;BME280;13424;48.424;11.258;2023-06-24T06:22:19;96579.50;;;22.22;66.55
25526;BME280;13424;48.424;11.258;2023-06-24T06:28:51;96579.44;;;22.70;65.46
25526;BME280;13424;48.424;11.258;2023-06-24T06:31:19;96578.47;;;22.61;65.41
25526;BME280;13424;48.424;11.258;2023-06-24T06:33:44;96580.13;;;22.99;65.26
25526;BME280;13424;48.424;11.258;2023-06-24T06:36:10;96576.19;;;23.05;63.75
25526;BME280;13424;48.424;11.258;2023-06-24T06:38:36;96581.88;;;22.90;62.89
25526;BME280;13424;48.424;11.258;2023-06-24T06:41:02;96577.00;;;23.25;62.60
25526;BME280;13424;48.424;11.258;2023-06-24T06:43:27;96589.19;;;23.46;62.40
25526;BME280;13424;48.424;11.258;2023-06-24T06:45:53;96593.53;;;23.80;60.69
25526;BME280;13424;48.424;11.258;2023-06-24T06:48:19;96589.31;;;23.87;60.83
25526;BME280;13424;48.424;11.258;2023-06-24T06:50:45;96588.09;;;23.80;61.07
25526;BME280;13424;48.424;11.258;2023-06-24T06:53:11;96578.34;;;23.60;60.78
25526;BME280;13424;48.424;11.258;2023-06-24T06:55:37;96578.22;;;24.11;60.73
25526;BME280;13424;48.424;11.258;2023-06-24T06:58:05;96571.81;;;23.75;62.73
25526;BME280;13424;48.424;11.258;2023-06-24T07:00:31;96576.00;;;24.13;60.39
25526;BME280;13424;48.424;11.258;2023-06-24T07:02:58;96578.63;;;24.46;59.66
25526;BME280;13424;48.424;11.258;2023-06-24T07:05:24;96572.03;;;24.74;58.62
25526;BME280;13424;48.424;11.258;2023-06-24T07:07:49;96566.00;;;25.00;58.16
25526;BME280;13424;48.424;11.258;2023-06-24T07:10:17;96573.47;;;24.58;59.18
25526;BME280;13424;48.424;11.258;2023-06-24T07:16:50;96569.69;;;25.18;57.91
25526;BME280;13424;48.424;11.258;2023-06-24T07:19:16;96573.69;;;24.98;57.30
25526;BME280;13424;48.424;11.258;2023-06-24T07:21:42;96576.47;;;25.20;55.22
25526;BME280;13424;48.424;11.258;2023-06-24T07:24:08;96582.84;;;25.02;54.86
25526;BME280;13424;48.424;11.258;2023-06-24T07:26:34;96572.28;;;24.87;54.76
25526;BME280;13424;48.424;11.258;2023-06-24T07:29:00;96574.59;;;25.07;56.83
25526;BME280;13424;48.424;11.258;2023-06-24T07:31:25;96575.53;;;25.25;56.48
25526;BME280;13424;48.424;11.258;2023-06-24T07:33:51;96580.06;;;25.29;54.54
25526;BME280;13424;48.424;11.258;2023-06-24T07:36:17;96577.25;;;24.85;55.63
25526;BME280;13424;48.424;11.258;2023-06-24T07:38:43;96576.09;;;25.13;55.61
25526;BME280;13424;48.424;11.258;2023-06-24T07:41:09;96587.44;;;25.07;56.93
25526;BME280;13424;48.424;11.258;2023-06-24T07:43:34;96574.94;;;25.59;54.96
25526;BME280;13424;48.424;11.258;2023-06-24T07:46:00;96587.56;;;25.69;53.49
25526;BME280;13424;48.424;11.258;2023-06-24T07:48:26;96590.06;;;26.50;51.42
25526;BME280;13424;48.424;11.258;2023-06-24T07:50:58;96585.88;;;26.52;50.67
25526;BME280;13424;48.424;11.258;2023-06-24T07:53:24;96597.34;;;26.63;50.97
25526;BME280;13424;48.424;11.258;2023-06-24T07:55:50;96591.09;;;26.80;51.72
25526;BME280;13424;48.424;11.258;2023-06-24T07:58:16;96590.31;;;27.05;50.68
25526;BME280;13424;48.424;11.258;2023-06-24T08:00:42;96596.25;;;26.90;50.91
25526;BME280;13424;48.424;11.258;2023-06-24T08:03:08;96600.06;;;26.63;50.44
25526;BME280;13424;48.424;11.258;2023-06-24T08:05:34;96595.97;;;27.26;49.43
25526;BME280;13424;48.424;11.258;2023-06-24T08:08:01;96589.78;;;26.77;49.67
25526;BME280;13424;48.424;11.258;2023-06-24T08:10:27;96591.41;;;26.95;50.84
25526;BME280;13424;48.424;11.258;2023-06-24T08:12:53;96586.53;;;26.18;51.30
25526;BME280;13424;48.424;11.258;2023-06-24T08:15:19;96588.56;;;26.04;51.64
25526;BME280;13424;48.424;11.258;2023-06-24T08:17:50;96582.63;;;26.41;51.84
25526;BME280;13424;48.424;11.258;2023-06-24T08:20:16;96586.06;;;25.85;52.18
25526;BME280;13424;48.424;11.258;2023-06-24T08:22:42;96577.69;;;26.21;52.49
25526;BME280;13424;48.424;11.258;2023-06-24T08:25:08;96578.44;;;25.73;52.39
25526;BME280;13424;48.424;11.258;2023-06-24T08:27:35;96574.22;;;25.22;53.56
25526;BME280;13424;48.424;11.258;2023-06-24T08:30:04;96577.56;;;25.86;52.85
25526;BME280;13424;48.424;11.258;2023-06-24T08:32:30;96579.31;;;26.70;50.97
25526;BME280;13424;48.424;11.258;2023-06-24T08:34:56;96580.69;;;26.42;54.27
25526;BME280;13424;48.424;11.258;2023-06-24T08:37:22;96576.97;;;27.04;53.13
25526;BME280;13424;48.424;11.258;2023-06-24T08:39:48;96574.38;;;27.16;52.72
25526;BME280;13424;48.424;11.258;2023-06-24T08:42:13;96573.84;;;27.66;50.73
25526;BME280;13424;48.424;11.258;2023-06-24T08:48:47;96576.53;;;28.68;49.30
25526;BME280;13424;48.424;11.258;2023-06-24T08:51:15;96580.63;;;27.77;50.24
25526;BME280;13424;48.424;11.258;2023-06-24T08:53:58;96576.63;;;27.14;49.79
25526;BME280;13424;48.424;11.258;2023-06-24T08:56:25;96571.47;;;27.30;49.02
25526;BME280;13424;48.424;11.258;2023-06-24T08:58:51;96570.84;;;25.93;51.95
25526;BME280;13424;48.424;11.258;2023-06-24T09:01:17;96577.19;;;25.57;52.78
25526;BME280;13424;48.424;11.258;2023-06-24T09:03:43;96571.34;;;26.03;52.68
25526;BME280;13424;48.424;11.258;2023-06-24T09:06:08;96576.53;;;26.13;53.22
25526;BME280;13424;48.424;11.258;2023-06-24T09:08:34;96576.72;;;25.77;53.01
25526;BME280;13424;48.424;11.258;2023-06-24T09:11:01;96574.34;;;23.20;56.42
25526;BME280;13424;48.424;11.258;2023-06-24T09:13:36;96582.19;;;26.17;53.41
25526;BME280;13424;48.424;11.258;2023-06-24T09:16:12;96571.97;;;25.69;53.24
25526;BME280;13424;48.424;11.258;2023-06-24T09:18:39;96576.75;;;27.00;52.65
25526;BME280;13424;48.424;11.258;2023-06-24T09:21:05;96574.34;;;27.68;49.16
25526;BME280;13424;48.424;11.258;2023-06-24T09:23:37;96581.38;;;26.48;51.86
25526;BME280;13424;48.424;11.258;2023-06-24T09:26:02;96563.13;;;24.83;54.73
25526;BME280;13424;48.424;11.258;2023-06-24T09:28:28;96563.75;;;27.23;51.55
25526;BME280;13424;48.424;11.258;2023-06-24T09:31:08;96569.34;;;28.17;47.01
25526;BME280;13424;48.424;11.258;2023-06-24T09:33:34;96569.84;;;26.28;51.01
25526;BME280;13424;48.424;11.258;2023-06-24T09:36:03;96565.00;;;26.99;52.37
25526;BME280;13424;48.424;11.258;2023-06-24T09:38:36;96560.75;;;25.26;53.22
25526;BME280;13424;48.424;11.258;2023-06-24T09:41:03;96561.63;;;24.76;53.17
25526;BME280;13424;48.424;11.258;2023-06-24T09:43:36;96553.88;;;25.82;50.22
25526;BME280;13424;48.424;11.258;2023-06-24T09:46:05;96566.38;;;27.92;48.79
25526;BME280;13424;48.424;11.258;2023-06-24T09:48:32;96566.72;;;28.29;48.93
25526;BME280;13424;48.424;11.258;2023-06-24T09:51:04;96563.19;;;28.58;48.08
25526;BME280;13424;48.424;11.258;2023-06-24T09:53:34;96568.31;;;27.92;48.23
25526;BME280;13424;48.424;11.258;2023-06-24T09:56:03;96556.59;;;26.61;49.05
25526;BME280;13424;48.424;11.258;2023-06-24T09:58:35;96549.38;;;26.17;51.11
25526;BME280;13424;48.424;11.258;2023-06-24T10:01:06;96557.66;;;27.99;50.25
25526;BME280;13424;48.424;11.258;2023-06-24T10:03:37;96548.38;;;28.21;49.52
25526;BME280;13424;48.424;11.258;2023-06-24T10:06:04;96547.91;;;29.19;44.31
25526;BME280;13424;48.424;11.258;2023-06-24T10:08:31;96540.41;;;27.98;45.64
25526;BME280;13424;48.424;11.258;2023-06-24T10:10:59;96532.41;;;28.52;45.71
25526;BME280;13424;48.424;11.258;2023-06-24T10:13:25;96535.13;;;29.24;44.82
25526;BME280;13424;48.424;11.258;2023-06-24T10:15:51;96530.06;;;29.80;43.02
25526;BME280;13424;48.424;11.258;2023-06-24T10:18:35;96530.75;;;28.81;45.08
25526;BME280;13424;48.424;11.258;2023-06-24T10:21:05;96522.06;;;26.17;49.93
25526;BME280;13424;48.424;11.258;2023-06-24T10:26:35;96523.09;;;27.60;48.31
25526;BME280;13424;48.424;11.258;2023-06-24T10:29:08;96522.03;;;26.83;49.60
25526;BME280;13424;48.424;11.258;2023-06-24T10:38:21;96512.66;;;26.49;51.02
25526;BME280;13424;48.424;11.258;2023-06-24T10:40:48;96508.81;;;26.67;51.07
25526;BME280;13424;48.424;11.258;2023-06-24T10:45:54;96506.09;;;27.28;47.54
25526;BME280;13424;48.424;11.258;2023-06-24T10:48:21;96504.63;;;28.24;48.19
25526;BME280;13424;48.424;11.258;2023-06-24T10:50:50;96505.19;;;27.62;47.86
25526;BME280;13424;48.424;11.258;2023-06-24T10:53:16;96495.66;;;27.77;45.49
25526;BME280;13424;48.424;11.258;2023-06-24T10:55:44;96491.97;;;28.41;43.64
25526;BME280;13424;48.424;11.258;2023-06-24T11:02:20;96478.88;;;28.17;46.35
25526;BME280;13424;48.424;11.258;2023-06-24T11:04:48;96477.84;;;28.30;45.75
25526;BME280;13424;48.424;11.258;2023-06-24T11:07:16;96480.13;;;29.11;44.71
25526;BME280;13424;48.424;11.258;2023-06-24T11:09:42;96473.72;;;28.65;41.24
25526;BME280;13424;48.424;11.258;2023-06-24T11:12:13;96473.44;;;27.70;46.33
25526;BME280;13424;48.424;11.258;2023-06-24T11:14:39;96470.47;;;29.59;42.53
25526;BME280;13424;48.424;11.258;2023-06-24T11:17:05;96472.22;;;29.43;43.05
25526;BME280;13424;48.424;11.258;2023-06-24T11:19:32;96469.03;;;30.11;41.76
25526;BME280;13424;48.424;11.258;2023-06-24T11:22:01;96464.00;;;28.89;42.42
25526;BME280;13424;48.424;11.258;2023-06-24T11:24:28;96463.88;;;28.44;43.10
25526;BME280;13424;48.424;11.258;2023-06-24T11:26:54;96451.91;;;26.04;47.08
25526;BME280;13424;48.424;11.258;2023-06-24T11:29:32;96451.66;;;27.00;47.10
25526;BME280;13424;48.424;11.258;2023-06-24T11:31:58;96454.28;;;26.71;47.82
25526;BME280;13424;48.424;11.258;2023-06-24T11:34:24;96443.34;;;25.88;49.52
25526;BME280;13424;48.424;11.258;2023-06-24T11:36:51;96447.06;;;24.76;50.31
25526;BME280;13424;48.424;11.258;2023-06-24T11:39:24;96439.25;;;25.06;52.40
25526;BME280;13424;48.424;11.258;2023-06-24T11:41:51;96440.47;;;27.87;45.84
25526;BME280;13424;48.424;11.258;2023-06-24T11:44:21;96441.38;;;28.50;44.82
25526;BME280;13424;48.424;11.258;2023-06-24T11:46:48;96441.06;;;28.73;43.23
25526;BME280;13424;48.424;11.258;2023-06-24T11:49:14;96435.91;;;28.50;42.25
25526;BME280;13424;48.424;11.258;2023-06-24T11:51:50;96425.53;;;28.56;42.67
25526;BME280;13424;48.424;11.258;2023-06-24T11:54:20;96423.72;;;29.14;40.47
25526;BME280;13424;48.424;11.258;2023-06-24T11:56:51;96422.09;;;30.44;41.44
25526;BME280;13424;48.424;11.258;2023-06-24T11:59:20;96414.38;;;28.61;44.06
25526;BME280;13424;48.424;11.258;2023-06-24T12:01:58;96417.78;;;30.06;40.93
25526;BME280;13424;48.424;11.258;2023-06-24T12:04:32;96409.50;;;26.84;43.80
25526;BME280;13424;48.424;11.258;2023-06-24T12:06:59;96407.91;;;28.99;41.92
25526;BME280;13424;48.424;11.258;2023-06-24T12:09:25;96409.31;;;29.50;43.68
25526;BME280;13424;48.424;11.258;2023-06-24T12:11:52;96403.94;;;29.08;44.71
25526;BME280;13424;48.424;11.258;2023-06-24T12:14:18;96396.41;;;28.22;42.05
25526;BME280;13424;48.424;11.258;2023-06-24T12:16:44;96397.84;;;28.82;41.36
25526;BME280;13424;48.424;11.258;2023-06-24T12:19:10;96397.56;;;29.29;41.55
25526;BME280;13424;48.424;11.258;2023-06-24T12:21:37;96392.94;;;30.15;40.48
25526;BME280;13424;48.424;11.258;2023-06-24T12:24:05;96392.09;;;29.41;41.36
25526;BME280;13424;48.424;11.258;2023-06-24T12:26:31;96398.16;;;29.46;40.76
25526;BME280;13424;48.424;11.258;2023-06-24T12:28:57;96394.09;;;27.82;43.37
25526;BME280;13424;48.424;11.258;2023-06-24T12:31:24;96394.88;;;30.02;42.14
25526;BME280;13424;48.424;11.258;2023-06-24T12:33:51;96392.94;;;30.67;39.11
25526;BME280;13424;48.424;11.258;2023-06-24T12:36:18;96391.41;;;29.44;38.61
25526;BME280;13424;48.424;11.258;2023-06-24T12:38:44;96380.13;;;29.58;39.85
25526;BME280;13424;48.424;11.258;2023-06-24T12:41:10;96376.06;;;30.28;43.52
25526;BME280;13424;48.424;11.258;2023-06-24T12:43:36;96370.22;;;29.44;43.45
25526;BME280;13424;48.424;11.258;2023-06-24T12:46:48;96377.09;;;30.24;40.87
25526;BME280;13424;48.424;11.258;2023-06-24T12:49:15;96373.75;;;30.30;40.14
25526;BME280;13424;48.424;11.258;2023-06-24T12:51:41;96373.13;;;29.72;41.28
25526;BME280;13424;48.424;11.258;2023-06-24T12:54:08;96367.69;;;30.65;40.69
25526;BME280;13424;48.424;11.258;2023-06-24T12:56:33;96357.28;;;28.54;42.79
25526;BME280;13424;48.424;11.258;2023-06-24T12:58:59;96359.22;;;27.53;42.71
25526;BME280;13424;48.424;11.258;2023-06-24T13:01:25;96361.22;;;29.56;44.42
25526;BME280;13424;48.424;11.258;2023-06-24T13:03:52;96355.25;;;28.30;42.69
25526;BME280;13424;48.424;11.258;2023-06-24T13:06:28;96354.81;;;29.64;44.44
25526;BME280;13424;48.424;11.258;2023-06-24T13:08:54;96362.13;;;29.48;39.85
25526;BME280;13424;48.424;11.258;2023-06-24T13:11:21;96364.00;;;30.73;38.25
25526;BME280;13424;48.424;11.258;2023-06-24T13:13:47;96355.28;;;29.79;41.40
25526;BME280;13424;48.424;11.258;2023-06-24T13:16:13;96357.75;;;29.96;41.96
25526;BME280;13424;48.424;11.258;2023-06-24T13:18:39;96363.25;;;30.48;39.71
25526;BME280;13424;48.424;11.258;2023-06-24T13:21:05;96358.63;;;30.24;40.17
25526;BME280;13424;48.424;11.258;2023-06-24T13:23:31;96359.38;;;31.05;39.55
25526;BME280;13424;48.424;11.258;2023-06-24T13:25:57;96358.75;;;30.56;38.47
25526;BME280;13424;48.424;11.258;2023-06-24T13:28:23;96354.69;;;30.78;38.42
25526;BME280;13424;48.424;11.258;2023-06-24T13:30:48;96346.81;;;29.71;38.76
25526;BME280;13424;48.424;11.258;2023-06-24T13:33:18;96353.41;;;31.19;38.91
25526;BME280;13424;48.424;11.258;2023-06-24T13:35:44;96352.56;;;31.78;38.29
25526;BME280;13424;48.424;11.258;2023-06-24T13:38:09;96348.41;;;32.04;37.25
25526;BME280;13424;48.424;11.258;2023-06-24T13:40:37;96347.38;;;30.98;39.31
25526;BME280;13424;48.424;11.258;2023-06-24T13:46:44;96347.41;;;31.61;37.62
25526;BME280;13424;48.424;11.258;2023-06-24T13:49:10;96331.84;;;30.21;38.23
25526;BME280;13424;48.424;11.258;2023-06-24T13:51:36;96338.72;;;30.03;38.95
25526;BME280;13424;48.424;11.258;2023-06-24T13:54:02;96333.31;;;30.07;39.49
25526;BME280;13424;48.424;11.258;2023-06-24T13:56:28;96337.81;;;30.11;40.36
25526;BME280;13424;48.424;11.258;2023-06-24T13:58:55;96327.56;;;29.59;40.09
25526;BME280;13424;48.424;11.258;2023-06-24T14:02:14;96329.47;;;28.77;43.13